createdAt,value
2019-01-25T00:00:02.944Z,5
2019-01-25T00:01:02.978Z,5
2019-01-25T00:02:03.730Z,5
2019-01-25T00:03:10.830Z,5
2019-01-25T00:04:03.240Z,5
2019-01-25T00:05:03.596Z,6.1
2019-01-25T00:06:03.838Z,6.1
2019-01-25T00:07:03.329Z,7.2
2019-01-25T00:08:02.576Z,6.1
2019-01-25T00:09:02.472Z,5
2019-01-25T00:10:03.860Z,6.1
2019-01-25T00:11:03.082Z,6.1
2019-01-25T00:12:03.332Z,5
2019-01-25T00:13:03.322Z,5
2019-01-25T00:14:03.635Z,5
2019-01-25T00:15:03.009Z,5
2019-01-25T00:16:03.282Z,5
2019-01-25T00:17:03.336Z,5
2019-01-25T00:18:03.353Z,5
2019-01-25T00:19:03.204Z,6.1
2019-01-25T00:20:04.418Z,3.6
2019-01-25T00:21:03.312Z,6.1
2019-01-25T00:22:03.837Z,6.1
2019-01-25T00:23:03.238Z,5
2019-01-25T00:24:07.541Z,3.6
2019-01-25T00:25:04.146Z,3.6
2019-01-25T00:26:03.060Z,3.6
2019-01-25T00:27:03.202Z,5
2019-01-25T00:28:03.148Z,5
2019-01-25T00:29:03.129Z,5
2019-01-25T00:30:02.982Z,3.6
2019-01-25T00:31:03.324Z,6.1
2019-01-25T00:32:03.551Z,6.1
2019-01-25T00:33:03.803Z,6.1
2019-01-25T00:34:03.205Z,5
2019-01-25T00:35:03.027Z,5
2019-01-25T00:36:02.988Z,6.1
2019-01-25T00:37:02.639Z,7.2
2019-01-25T00:38:03.261Z,3.6
2019-01-25T00:39:03.668Z,5
2019-01-25T00:40:06.866Z,3.6
2019-01-25T00:41:04.006Z,5
2019-01-25T00:42:03.711Z,5
2019-01-25T00:43:03.977Z,5
2019-01-25T00:44:03.181Z,5
2019-01-25T00:45:03.200Z,5
2019-01-25T00:46:03.214Z,3.6
2019-01-25T00:47:03.594Z,3.6
2019-01-25T00:48:02.629Z,5
2019-01-25T00:49:03.375Z,3.6
2019-01-25T00:50:03.869Z,5
2019-01-25T00:51:03.204Z,5
2019-01-25T00:52:03.462Z,5
2019-01-25T00:53:02.978Z,6.1
2019-01-25T00:54:03.922Z,6.1
2019-01-25T00:55:02.856Z,6.1
2019-01-25T00:56:03.221Z,7.2
2019-01-25T00:57:03.260Z,7.2
2019-01-25T00:58:03.263Z,7.2
2019-01-25T00:59:03.079Z,7.2
2019-01-25T01:00:03.351Z,6.1
2019-01-25T01:01:03.094Z,6.1
2019-01-25T01:02:02.994Z,6.1
2019-01-25T01:03:03.664Z,7.2
2019-01-25T01:04:03.140Z,6.1
2019-01-25T01:05:03.182Z,7.2
2019-01-25T01:06:03.539Z,6.1
2019-01-25T01:07:03.869Z,5
2019-01-25T01:08:02.908Z,5
2019-01-25T01:09:03.930Z,6.1
2019-01-25T01:10:03.766Z,6.1
2019-01-25T01:11:03.292Z,8.6
2019-01-25T01:12:03.005Z,5
2019-01-25T01:13:03.604Z,5
2019-01-25T01:14:03.550Z,5
2019-01-25T01:15:03.528Z,7.2
2019-01-25T01:16:03.814Z,6.1
2019-01-25T01:17:03.905Z,7.2
2019-01-25T01:18:03.345Z,7.2
2019-01-25T01:19:03.071Z,6.1
2019-01-25T01:20:03.782Z,6.1
2019-01-25T01:21:03.819Z,6.1
2019-01-25T01:22:03.693Z,5
2019-01-25T01:23:02.935Z,7.2
2019-01-25T01:24:03.943Z,6.1
2019-01-25T01:25:03.100Z,6.1
2019-01-25T01:26:03.216Z,5
2019-01-25T01:27:03.117Z,5
2019-01-25T01:28:03.347Z,6.1
2019-01-25T01:29:03.583Z,6.1
2019-01-25T01:30:03.066Z,5
2019-01-25T01:31:03.621Z,6.1
2019-01-25T01:32:03.545Z,3.6
2019-01-25T01:33:03.141Z,3.6
2019-01-25T01:34:03.958Z,3.6
2019-01-25T01:35:03.092Z,3.6
2019-01-25T01:36:03.129Z,3.6
2019-01-25T01:37:03.009Z,5
2019-01-25T01:38:03.375Z,5
2019-01-25T01:39:03.777Z,6.1
2019-01-25T01:40:03.961Z,3.6
2019-01-25T01:41:03.634Z,3.6
2019-01-25T01:42:03.399Z,3.6
2019-01-25T01:43:03.421Z,3.6
2019-01-25T01:44:03.364Z,3.6
2019-01-25T01:45:03.575Z,3.6
2019-01-25T01:46:03.833Z,3.6
2019-01-25T01:47:03.635Z,5
2019-01-25T01:48:03.610Z,3.6
2019-01-25T01:49:02.970Z,3.6
2019-01-25T01:50:03.190Z,3.6
2019-01-25T01:51:02.803Z,3.6
2019-01-25T01:52:02.855Z,3.6
2019-01-25T01:53:03.164Z,5
2019-01-25T01:54:03.656Z,5
2019-01-25T01:55:02.521Z,5
2019-01-25T01:56:03.438Z,5
2019-01-25T01:57:03.593Z,5
2019-01-25T01:58:02.931Z,3.6
2019-01-25T01:59:03.649Z,3.6
2019-01-25T02:00:03.134Z,5
2019-01-25T02:01:03.858Z,3.6
2019-01-25T02:02:03.116Z,2.5
2019-01-25T02:03:03.267Z,2.5
2019-01-25T02:04:03.352Z,2.5
2019-01-25T02:05:03.294Z,2.5
2019-01-25T02:06:03.569Z,2.5
2019-01-25T02:07:03.810Z,3.6
2019-01-25T02:08:02.940Z,3.6
2019-01-25T02:09:03.554Z,3.6
2019-01-25T02:10:03.619Z,2.5
2019-01-25T02:11:03.152Z,3.6
2019-01-25T02:12:03.450Z,3.6
2019-01-25T02:13:03.995Z,2.5
2019-01-25T02:14:03.230Z,2.5
2019-01-25T02:15:03.149Z,2.5
2019-01-25T02:16:03.430Z,2.5
2019-01-25T02:17:03.244Z,2.5
2019-01-25T02:18:03.205Z,2.5
2019-01-25T02:19:03.154Z,3.6
2019-01-25T02:20:03.492Z,3.6
2019-01-25T02:21:03.631Z,3.6
2019-01-25T02:22:03.123Z,5
2019-01-25T02:23:03.424Z,5
2019-01-25T02:24:03.673Z,5
2019-01-25T02:25:03.115Z,3.6
2019-01-25T02:26:03.388Z,3.6
2019-01-25T02:27:03.653Z,5
2019-01-25T02:28:03.062Z,5
2019-01-25T02:29:02.744Z,3.6
2019-01-25T02:30:03.357Z,3.6
2019-01-25T02:31:03.473Z,3.6
2019-01-25T02:32:03.913Z,3.6
2019-01-25T02:33:01.857Z,3.6
2019-01-25T02:34:02.938Z,5
2019-01-25T02:35:03.373Z,3.6
2019-01-25T02:36:03.278Z,3.6
2019-01-25T02:37:03.618Z,3.6
2019-01-25T02:38:03.410Z,3.6
2019-01-25T02:39:03.199Z,3.6
2019-01-25T02:40:04.004Z,3.6
2019-01-25T02:41:03.667Z,3.6
2019-01-25T02:42:03.830Z,3.6
2019-01-25T02:43:03.784Z,2.5
2019-01-25T02:44:03.021Z,2.5
2019-01-25T02:45:03.322Z,5
2019-01-25T02:46:03.756Z,6.1
2019-01-25T02:47:03.150Z,5
2019-01-25T02:48:03.374Z,5
2019-01-25T02:49:03.796Z,5
2019-01-25T02:50:03.530Z,5
2019-01-25T02:51:03.140Z,5
2019-01-25T02:52:03.699Z,3.6
2019-01-25T02:53:04.492Z,3.6
2019-01-25T02:54:03.271Z,3.6
2019-01-25T02:55:03.435Z,3.6
2019-01-25T02:56:03.228Z,3.6
2019-01-25T02:57:03.449Z,3.6
2019-01-25T02:58:03.060Z,3.6
2019-01-25T02:59:03.331Z,3.6
2019-01-25T03:00:02.910Z,3.6
2019-01-25T03:01:03.790Z,3.6
2019-01-25T03:02:02.821Z,3.6
2019-01-25T03:03:03.504Z,3.6
2019-01-25T03:04:03.522Z,3.6
2019-01-25T03:05:03.709Z,3.6
2019-01-25T03:06:02.982Z,3.6
2019-01-25T03:07:03.296Z,3.6
2019-01-25T03:08:02.644Z,3.6
2019-01-25T03:09:02.065Z,7.2
2019-01-25T03:10:03.503Z,5
2019-01-25T03:11:03.058Z,7.2
2019-01-25T03:12:03.100Z,7.2
2019-01-25T03:13:03.923Z,6.1
2019-01-25T03:14:03.604Z,5
2019-01-25T03:15:03.763Z,6.1
2019-01-25T03:16:03.231Z,6.1
2019-01-25T03:17:02.480Z,7.2
2019-01-25T03:18:03.107Z,5
2019-01-25T03:19:03.663Z,5
2019-01-25T03:20:03.110Z,6.1
2019-01-25T03:21:05.393Z,7.2
2019-01-25T03:22:03.424Z,5
2019-01-25T03:23:03.020Z,5
2019-01-25T03:24:02.906Z,6.1
2019-01-25T03:25:03.795Z,6.1
2019-01-25T03:26:03.462Z,6.1
2019-01-25T03:27:03.543Z,5
2019-01-25T03:28:03.114Z,5
2019-01-25T03:29:03.269Z,6.1
2019-01-25T03:30:03.643Z,7.2
2019-01-25T03:31:02.938Z,7.2
2019-01-25T03:32:03.140Z,8.6
2019-01-25T03:33:02.834Z,5
2019-01-25T03:34:03.280Z,6.1
2019-01-25T03:35:03.234Z,6.1
2019-01-25T03:36:03.751Z,7.2
2019-01-25T03:37:03.052Z,7.2
2019-01-25T03:38:03.640Z,6.1
2019-01-25T03:39:03.672Z,7.2
2019-01-25T03:40:03.553Z,6.1
2019-01-25T03:41:03.041Z,5
2019-01-25T03:42:03.244Z,5
2019-01-25T03:43:03.201Z,5
2019-01-25T03:44:02.990Z,5
2019-01-25T03:45:03.337Z,5
2019-01-25T03:46:03.715Z,7.2
2019-01-25T03:47:02.942Z,7.2
2019-01-25T03:48:03.816Z,6.1
2019-01-25T03:49:03.748Z,6.1
2019-01-25T03:50:03.023Z,6.1
2019-01-25T03:51:03.853Z,6.1
2019-01-25T03:52:03.561Z,6.1
2019-01-25T03:53:03.657Z,6.1
2019-01-25T03:54:03.257Z,6.1
2019-01-25T03:55:03.028Z,7.2
2019-01-25T03:56:03.549Z,7.2
2019-01-25T03:57:04.897Z,7.2
2019-01-25T03:58:03.694Z,7.2
2019-01-25T03:59:03.294Z,7.2
2019-01-25T04:00:03.473Z,8.6
2019-01-25T04:01:03.178Z,8.6
2019-01-25T04:02:03.364Z,6.1
2019-01-25T04:03:03.885Z,6.1
2019-01-25T04:04:03.180Z,8.6
2019-01-25T04:05:03.036Z,7.2
2019-01-25T04:06:02.873Z,6.1
2019-01-25T04:07:02.924Z,6.1
2019-01-25T04:08:02.919Z,6.1
2019-01-25T04:09:02.562Z,8.6
2019-01-25T04:10:03.164Z,7.2
2019-01-25T04:11:04.486Z,7.2
2019-01-25T04:12:03.616Z,7.2
2019-01-25T04:13:03.174Z,5
2019-01-25T04:14:03.728Z,5
2019-01-25T04:15:03.646Z,9.7
2019-01-25T04:16:03.091Z,11.2
2019-01-25T04:17:03.085Z,8.6
2019-01-25T04:18:03.940Z,6.1
2019-01-25T04:19:03.567Z,8.6
2019-01-25T04:20:02.693Z,7.2
2019-01-25T04:21:03.759Z,7.2
2019-01-25T04:22:03.047Z,7.2
2019-01-25T04:23:03.714Z,7.2
2019-01-25T04:24:03.254Z,9.7
2019-01-25T04:25:03.790Z,9.7
2019-01-25T04:26:03.829Z,6.1
2019-01-25T04:27:03.479Z,6.1
2019-01-25T04:28:03.183Z,6.1
2019-01-25T04:29:03.086Z,6.1
2019-01-25T04:30:03.472Z,5
2019-01-25T04:31:03.107Z,5
2019-01-25T04:32:03.226Z,5
2019-01-25T04:33:03.033Z,6.1
2019-01-25T04:34:03.415Z,7.2
2019-01-25T04:35:02.892Z,7.2
2019-01-25T04:36:03.578Z,6.1
2019-01-25T04:37:03.389Z,6.1
2019-01-25T04:38:03.151Z,6.1
2019-01-25T04:39:03.768Z,6.1
2019-01-25T04:40:03.176Z,6.1
2019-01-25T04:41:02.844Z,6.1
2019-01-25T04:42:03.274Z,6.1
2019-01-25T04:43:03.945Z,6.1
2019-01-25T04:44:02.885Z,6.1
2019-01-25T04:45:03.141Z,6.1
2019-01-25T04:46:03.715Z,7.2
2019-01-25T04:47:03.443Z,6.1
2019-01-25T04:48:03.058Z,7.2
2019-01-25T04:49:03.453Z,7.2
2019-01-25T04:50:03.015Z,9.7
2019-01-25T04:51:03.654Z,8.6
2019-01-25T04:52:03.307Z,6.1
2019-01-25T04:53:03.611Z,7.2
2019-01-25T04:54:03.358Z,6.1
2019-01-25T04:55:03.395Z,6.1
2019-01-25T04:56:02.990Z,6.1
2019-01-25T04:57:03.374Z,6.1
2019-01-25T04:58:03.174Z,6.1
2019-01-25T04:59:03.103Z,7.2
2019-01-25T05:00:04.086Z,8.6
2019-01-25T05:01:02.996Z,7.2
2019-01-25T05:02:03.629Z,7.2
2019-01-25T05:03:02.938Z,7.2
2019-01-25T05:04:03.458Z,7.2
2019-01-25T05:05:03.362Z,7.2
2019-01-25T05:06:02.562Z,7.2
2019-01-25T05:07:03.698Z,7.2
2019-01-25T05:08:03.446Z,7.2
2019-01-25T05:09:03.320Z,7.2
2019-01-25T05:10:03.754Z,7.2
2019-01-25T05:11:03.180Z,5
2019-01-25T05:12:03.321Z,6.1
2019-01-25T05:13:03.312Z,7.2
2019-01-25T05:14:03.394Z,8.6
2019-01-25T05:15:03.805Z,6.1
2019-01-25T05:16:03.049Z,5
2019-01-25T05:17:02.989Z,6.1
2019-01-25T05:18:03.874Z,7.2
2019-01-25T05:19:03.787Z,6.1
2019-01-25T05:20:03.266Z,6.1
2019-01-25T05:21:03.393Z,5
2019-01-25T05:22:03.344Z,8.6
2019-01-25T05:23:03.209Z,5
2019-01-25T05:24:03.771Z,5
2019-01-25T05:25:03.049Z,5
2019-01-25T05:26:03.746Z,5
2019-01-25T05:27:03.382Z,7.2
2019-01-25T05:28:03.736Z,5
2019-01-25T05:29:03.871Z,5
2019-01-25T05:30:03.197Z,5
2019-01-25T05:31:02.147Z,5
2019-01-25T05:32:03.827Z,5
2019-01-25T05:33:03.802Z,5
2019-01-25T05:34:03.543Z,5
2019-01-25T05:35:03.708Z,6.1
2019-01-25T05:36:03.656Z,6.1
2019-01-25T05:37:03.547Z,8.6
2019-01-25T05:38:03.628Z,6.1
2019-01-25T05:39:03.324Z,7.2
2019-01-25T05:40:03.819Z,6.1
2019-01-25T05:41:03.675Z,5
2019-01-25T05:42:02.748Z,5
2019-01-25T05:43:03.378Z,5
2019-01-25T05:44:03.197Z,5
2019-01-25T05:45:03.922Z,5
2019-01-25T05:46:03.603Z,5
2019-01-25T05:47:03.201Z,3.6
2019-01-25T05:48:03.825Z,3.6
2019-01-25T05:49:03.890Z,5
2019-01-25T05:50:03.813Z,5
2019-01-25T05:51:03.324Z,3.6
2019-01-25T05:52:03.315Z,3.6
2019-01-25T05:53:03.229Z,5
2019-01-25T05:54:02.955Z,5
2019-01-25T05:55:03.415Z,5
2019-01-25T05:56:03.772Z,6.1
2019-01-25T05:57:03.107Z,6.1
2019-01-25T05:58:02.923Z,3.6
2019-01-25T05:59:03.433Z,3.6
2019-01-25T06:00:03.536Z,5
2019-01-25T06:01:02.646Z,3.6
2019-01-25T06:02:03.014Z,5
2019-01-25T06:03:02.279Z,5
2019-01-25T06:04:03.711Z,5
2019-01-25T06:05:03.118Z,3.6
2019-01-25T06:06:03.061Z,3.6
2019-01-25T06:07:03.202Z,5
2019-01-25T06:08:03.476Z,5
2019-01-25T06:09:03.780Z,3.6
2019-01-25T06:10:03.871Z,2.5
2019-01-25T06:11:03.726Z,2.5
2019-01-25T06:12:03.412Z,2.5
2019-01-25T06:13:03.364Z,2.5
2019-01-25T06:14:03.033Z,2.5
2019-01-25T06:15:03.392Z,2.5
2019-01-25T06:16:02.913Z,2.5
2019-01-25T06:17:03.493Z,2.5
2019-01-25T06:18:03.664Z,1.1
2019-01-25T06:19:03.308Z,1.1
2019-01-25T06:20:03.360Z,1.1
2019-01-25T06:21:03.293Z,1.1
2019-01-25T06:22:02.743Z,2.5
2019-01-25T06:23:03.803Z,2.5
2019-01-25T06:24:03.778Z,2.5
2019-01-25T06:25:03.590Z,2.5
2019-01-25T06:26:03.747Z,2.5
2019-01-25T06:27:03.145Z,2.5
2019-01-25T06:28:03.025Z,5
2019-01-25T06:29:03.149Z,2.5
2019-01-25T06:30:02.485Z,3.6
2019-01-25T06:31:03.146Z,3.6
2019-01-25T06:32:02.034Z,3.6
2019-01-25T06:33:03.200Z,5
2019-01-25T06:34:02.955Z,2.5
2019-01-25T06:35:03.575Z,3.6
2019-01-25T06:36:03.277Z,3.6
2019-01-25T06:37:03.932Z,3.6
2019-01-25T06:38:03.255Z,3.6
2019-01-25T06:39:03.285Z,3.6
2019-01-25T06:40:03.450Z,5
2019-01-25T06:41:03.782Z,5
2019-01-25T06:42:03.330Z,3.6
2019-01-25T06:43:03.298Z,5
2019-01-25T06:44:03.395Z,3.6
2019-01-25T06:45:03.773Z,3.6
2019-01-25T06:46:03.715Z,5
2019-01-25T06:47:03.520Z,3.6
2019-01-25T06:48:03.131Z,5
2019-01-25T06:49:03.695Z,5
2019-01-25T06:50:03.600Z,3.6
2019-01-25T06:51:02.924Z,3.6
2019-01-25T06:52:03.693Z,3.6
2019-01-25T06:53:02.942Z,3.6
2019-01-25T06:54:02.379Z,2.5
2019-01-25T06:55:03.138Z,2.5
2019-01-25T06:56:03.668Z,2.5
2019-01-25T06:57:03.267Z,3.6
2019-01-25T06:58:03.385Z,3.6
2019-01-25T06:59:03.026Z,3.6
2019-01-25T07:00:03.259Z,3.6
2019-01-25T07:01:02.872Z,1.1
2019-01-25T07:02:03.398Z,1.1
2019-01-25T07:03:02.877Z,1.1
2019-01-25T07:04:05.387Z,1.1
2019-01-25T07:05:03.229Z,1.1
2019-01-25T07:06:03.816Z,1.1
2019-01-25T07:07:03.859Z,1.1
2019-01-25T07:08:03.401Z,1.1
2019-01-25T07:09:03.111Z,5
2019-01-25T07:10:03.589Z,3.6
2019-01-25T07:11:04.143Z,3.6
2019-01-25T07:12:03.267Z,3.6
2019-01-25T07:13:03.410Z,3.6
2019-01-25T07:14:02.592Z,3.6
2019-01-25T07:15:03.072Z,3.6
2019-01-25T07:16:02.141Z,2.5
2019-01-25T07:17:02.876Z,3.6
2019-01-25T07:18:03.709Z,5
2019-01-25T07:19:03.351Z,5
2019-01-25T07:20:03.886Z,5
2019-01-25T07:21:03.141Z,5
2019-01-25T07:22:03.724Z,5
2019-01-25T07:23:03.011Z,5
2019-01-25T07:24:03.151Z,3.6
2019-01-25T07:25:03.266Z,3.6
2019-01-25T07:26:04.239Z,3.6
2019-01-25T07:27:03.177Z,2.5
2019-01-25T07:28:02.960Z,2.5
2019-01-25T07:29:03.011Z,3.6
2019-01-25T07:30:03.295Z,3.6
2019-01-25T07:31:04.028Z,5
2019-01-25T07:32:03.731Z,5
2019-01-25T07:33:03.170Z,3.6
2019-01-25T07:34:03.685Z,3.6
2019-01-25T07:35:03.722Z,5
2019-01-25T07:36:03.245Z,5
2019-01-25T07:37:03.804Z,5
2019-01-25T07:38:03.491Z,3.6
2019-01-25T07:39:03.189Z,2.5
2019-01-25T07:40:03.131Z,3.6
2019-01-25T07:41:03.918Z,3.6
2019-01-25T07:42:04.019Z,2.5
2019-01-25T07:43:02.962Z,5
2019-01-25T07:44:02.096Z,5
2019-01-25T07:45:04.224Z,5
2019-01-25T07:46:03.086Z,5
2019-01-25T07:47:02.348Z,5
2019-01-25T07:48:03.899Z,5
2019-01-25T07:49:03.384Z,5
2019-01-25T07:50:03.941Z,2.5
2019-01-25T07:51:03.408Z,3.6
2019-01-25T07:52:03.390Z,3.6
2019-01-25T07:53:03.459Z,3.6
2019-01-25T07:54:03.026Z,3.6
2019-01-25T07:55:03.264Z,3.6
2019-01-25T07:56:04.007Z,2.5
2019-01-25T07:57:03.177Z,2.5
2019-01-25T07:58:03.170Z,3.6
2019-01-25T07:59:03.763Z,3.6
2019-01-25T08:00:03.626Z,5
2019-01-25T08:01:03.328Z,5
2019-01-25T08:02:03.056Z,5
2019-01-25T08:03:03.781Z,5
2019-01-25T08:04:03.156Z,3.6
2019-01-25T08:05:03.795Z,3.6
2019-01-25T08:06:03.282Z,5
2019-01-25T08:07:03.122Z,5
2019-01-25T08:08:03.091Z,3.6
2019-01-25T08:09:03.880Z,3.6
2019-01-25T08:10:04.282Z,5
2019-01-25T08:11:03.674Z,5
2019-01-25T08:12:08.898Z,6.1
2019-01-25T08:13:02.025Z,3.6
2019-01-25T08:14:03.224Z,3.6
2019-01-25T08:15:03.709Z,5
2019-01-25T08:16:03.255Z,5
2019-01-25T08:17:04.049Z,5
2019-01-25T08:18:03.466Z,6.1
2019-01-25T08:19:03.481Z,3.6
2019-01-25T08:20:03.195Z,5
2019-01-25T08:21:02.918Z,5
2019-01-25T08:22:03.576Z,3.6
2019-01-25T08:23:03.129Z,3.6
2019-01-25T08:24:03.039Z,3.6
2019-01-25T08:25:03.653Z,5
2019-01-25T08:26:03.534Z,2.5
2019-01-25T08:27:03.505Z,2.5
2019-01-25T08:28:03.897Z,3.6
2019-01-25T08:29:03.398Z,3.6
2019-01-25T08:30:03.452Z,5
2019-01-25T08:31:03.374Z,5
2019-01-25T08:32:03.829Z,5
2019-01-25T08:33:03.440Z,6.1
2019-01-25T08:34:02.739Z,5
2019-01-25T08:35:02.891Z,5
2019-01-25T08:36:03.892Z,5
2019-01-25T08:37:03.966Z,5
2019-01-25T08:38:02.195Z,2.5
2019-01-25T08:39:03.902Z,2.5
2019-01-25T08:40:03.071Z,3.6
2019-01-25T08:41:02.097Z,2.5
2019-01-25T08:42:03.516Z,2.5
2019-01-25T08:43:03.858Z,1.1
2019-01-25T08:44:03.897Z,3.6
2019-01-25T08:45:03.994Z,3.6
2019-01-25T08:46:03.703Z,1.1
2019-01-25T08:47:03.449Z,2.5
2019-01-25T08:48:03.634Z,2.5
2019-01-25T08:49:03.410Z,5
2019-01-25T08:50:03.941Z,5
2019-01-25T08:51:04.323Z,2.5
2019-01-25T08:52:03.661Z,2.5
2019-01-25T08:53:03.410Z,2.5
2019-01-25T08:54:03.579Z,1.1
2019-01-25T08:55:03.774Z,1.1
2019-01-25T08:56:03.321Z,1.1
2019-01-25T08:57:03.330Z,3.6
2019-01-25T08:58:03.202Z,3.6
2019-01-25T08:59:03.256Z,3.6
2019-01-25T09:00:03.550Z,3.6
2019-01-25T09:01:03.302Z,3.6
2019-01-25T09:02:03.807Z,3.6
2019-01-25T09:03:03.575Z,3.6
2019-01-25T09:04:02.236Z,3.6
2019-01-25T09:05:03.067Z,3.6
2019-01-25T09:06:04.084Z,3.6
2019-01-25T09:07:03.207Z,3.6
2019-01-25T09:08:03.947Z,3.6
2019-01-25T09:09:03.273Z,3.6
2019-01-25T09:10:04.051Z,5
2019-01-25T09:11:03.295Z,5
2019-01-25T09:12:03.728Z,5
2019-01-25T09:13:03.757Z,3.6
2019-01-25T09:14:03.557Z,5
2019-01-25T09:15:02.825Z,5
2019-01-25T09:16:03.521Z,5
2019-01-25T09:17:03.722Z,5
2019-01-25T09:18:03.081Z,5
2019-01-25T09:19:02.952Z,5
2019-01-25T09:20:03.822Z,5
2019-01-25T09:21:02.793Z,3.6
2019-01-25T09:22:03.600Z,3.6
2019-01-25T09:23:03.219Z,5
2019-01-25T09:24:03.586Z,5
2019-01-25T09:25:03.240Z,5
2019-01-25T09:26:02.527Z,5
2019-01-25T09:27:02.932Z,2.5
2019-01-25T09:28:02.029Z,3.6
2019-01-25T09:29:03.196Z,3.6
2019-01-25T09:30:03.684Z,3.6
2019-01-25T09:31:03.177Z,2.5
2019-01-25T09:32:03.456Z,2.5
2019-01-25T09:33:03.966Z,3.6
2019-01-25T09:34:03.469Z,5
2019-01-25T09:35:03.630Z,5
2019-01-25T09:36:03.045Z,5
2019-01-25T09:37:02.058Z,7.2
2019-01-25T09:38:03.156Z,5
2019-01-25T09:39:03.106Z,5
2019-01-25T09:40:03.227Z,3.6
2019-01-25T09:41:02.969Z,3.6
2019-01-25T09:42:02.745Z,3.6
2019-01-25T09:43:03.791Z,3.6
2019-01-25T09:44:03.837Z,3.6
2019-01-25T09:45:03.201Z,5
2019-01-25T09:46:03.283Z,3.6
2019-01-25T09:47:03.016Z,5
2019-01-25T09:48:03.751Z,7.2
2019-01-25T09:49:03.500Z,7.2
2019-01-25T09:50:03.420Z,6.1
2019-01-25T09:51:02.945Z,6.1
2019-01-25T09:52:03.220Z,7.2
2019-01-25T09:53:03.155Z,7.2
2019-01-25T09:54:03.946Z,9.7
2019-01-25T09:55:03.377Z,9.7
2019-01-25T09:56:03.651Z,7.2
2019-01-25T09:57:03.329Z,7.2
2019-01-25T09:58:03.507Z,7.2
2019-01-25T09:59:03.224Z,7.2
2019-01-25T10:00:03.155Z,8.6
2019-01-25T10:01:02.856Z,7.2
2019-01-25T10:02:02.146Z,7.2
2019-01-25T10:03:03.845Z,8.6
2019-01-25T10:04:02.751Z,7.2
2019-01-25T10:05:03.866Z,8.6
2019-01-25T10:06:03.681Z,9.7
2019-01-25T10:07:02.934Z,7.2
2019-01-25T10:08:03.057Z,8.6
2019-01-25T10:09:03.256Z,7.2
2019-01-25T10:10:03.504Z,7.2
2019-01-25T10:11:03.035Z,7.2
2019-01-25T10:12:03.426Z,7.2
2019-01-25T10:13:03.069Z,7.2
2019-01-25T10:14:03.749Z,7.2
2019-01-25T10:15:03.559Z,5
2019-01-25T10:16:03.425Z,7.2
2019-01-25T10:17:03.990Z,7.2
2019-01-25T10:18:04.024Z,6.1
2019-01-25T10:19:03.884Z,8.6
2019-01-25T10:20:03.188Z,6.1
2019-01-25T10:21:03.284Z,6.1
2019-01-25T10:22:02.876Z,6.1
2019-01-25T10:23:02.901Z,6.1
2019-01-25T10:24:03.809Z,6.1
2019-01-25T10:25:03.864Z,7.2
2019-01-25T10:26:02.589Z,5
2019-01-25T10:27:03.468Z,7.2
2019-01-25T10:28:03.028Z,6.1
2019-01-25T10:29:04.287Z,6.1
2019-01-25T10:30:03.106Z,6.1
2019-01-25T10:31:02.790Z,7.2
2019-01-25T10:32:03.744Z,7.2
2019-01-25T10:33:03.250Z,6.1
2019-01-25T10:34:02.291Z,6.1
2019-01-25T10:35:03.297Z,5
2019-01-25T10:36:03.411Z,5
2019-01-25T10:37:03.681Z,3.6
2019-01-25T10:38:05.188Z,3.6
2019-01-25T10:39:03.216Z,7.2
2019-01-25T10:40:03.147Z,6.1
2019-01-25T10:41:03.063Z,5
2019-01-25T10:42:03.599Z,5
2019-01-25T10:43:02.894Z,6.1
2019-01-25T10:44:03.547Z,6.1
2019-01-25T10:45:05.075Z,8.6
2019-01-25T10:46:03.808Z,7.2
2019-01-25T10:47:03.007Z,5
2019-01-25T10:48:03.509Z,3.6
2019-01-25T10:49:03.162Z,3.6
2019-01-25T10:50:03.330Z,6.1
2019-01-25T10:51:02.985Z,8.6
2019-01-25T10:52:03.021Z,6.1
2019-01-25T10:53:03.594Z,6.1
2019-01-25T10:54:03.672Z,7.2
2019-01-25T10:55:02.533Z,8.6
2019-01-25T10:56:03.825Z,8.6
2019-01-25T10:57:03.545Z,8.6
2019-01-25T10:58:03.833Z,6.1
2019-01-25T10:59:03.315Z,2.5
2019-01-25T11:00:03.867Z,5
2019-01-25T11:01:03.081Z,8.6
2019-01-25T11:02:03.293Z,8.6
2019-01-25T11:03:03.790Z,8.6
2019-01-25T11:04:03.765Z,8.6
2019-01-25T11:05:03.271Z,8.6
2019-01-25T11:06:03.387Z,8.6
2019-01-25T11:07:03.713Z,6.1
2019-01-25T11:08:02.906Z,6.1
2019-01-25T11:09:03.874Z,6.1
2019-01-25T11:10:04.084Z,5
2019-01-25T11:11:03.779Z,5
2019-01-25T11:12:03.602Z,5
2019-01-25T11:13:03.259Z,5
2019-01-25T11:14:03.598Z,5
2019-01-25T11:15:03.272Z,5
2019-01-25T11:16:03.698Z,7.2
2019-01-25T11:17:03.776Z,7.2
2019-01-25T11:18:03.432Z,7.2
2019-01-25T11:19:03.164Z,7.2
2019-01-25T11:20:03.954Z,7.2
2019-01-25T11:21:03.537Z,8.6
2019-01-25T11:22:03.050Z,8.6
2019-01-25T11:23:02.285Z,7.2
2019-01-25T11:24:08.323Z,6.1
2019-01-25T11:25:02.044Z,6.1
2019-01-25T11:26:03.642Z,6.1
2019-01-25T11:27:03.800Z,6.1
2019-01-25T11:28:03.116Z,6.1
2019-01-25T11:29:03.470Z,8.6
2019-01-25T11:30:03.437Z,8.6
2019-01-25T11:31:03.870Z,8.6
2019-01-25T11:32:03.455Z,9.7
2019-01-25T11:33:03.567Z,9.7
2019-01-25T11:34:03.040Z,9.7
2019-01-25T11:35:03.917Z,9.7
2019-01-25T11:36:03.739Z,7.2
2019-01-25T11:37:03.315Z,7.2
2019-01-25T11:38:03.483Z,8.6
2019-01-25T11:39:02.927Z,8.6
2019-01-25T11:40:03.902Z,7.2
2019-01-25T11:41:03.497Z,7.2
2019-01-25T11:42:03.432Z,8.6
2019-01-25T11:43:09.534Z,8.6
2019-01-25T11:44:03.822Z,8.6
2019-01-25T11:45:03.485Z,7.2
2019-01-25T11:46:03.168Z,6.1
2019-01-25T11:47:03.160Z,7.2
2019-01-25T11:48:03.076Z,8.6
2019-01-25T11:49:02.959Z,8.6
2019-01-25T11:50:03.267Z,8.6
2019-01-25T11:51:03.474Z,8.6
2019-01-25T11:52:03.509Z,8.6
2019-01-25T11:53:03.638Z,8.6
2019-01-25T11:54:03.812Z,8.6
2019-01-25T11:55:04.279Z,9.7
2019-01-25T11:56:03.035Z,9.7
2019-01-25T11:57:03.169Z,8.6
2019-01-25T11:58:03.272Z,7.2
2019-01-25T11:59:03.887Z,6.1
2019-01-25T12:00:03.179Z,6.1
2019-01-25T12:01:02.464Z,9.7
2019-01-25T12:02:02.538Z,5
2019-01-25T12:03:03.227Z,5
2019-01-25T12:04:03.897Z,8.6
2019-01-25T12:05:02.940Z,8.6
2019-01-25T12:06:03.455Z,9.7
2019-01-25T12:07:03.022Z,11.2
2019-01-25T12:08:03.574Z,11.2
2019-01-25T12:09:03.341Z,12.2
2019-01-25T12:10:03.366Z,14.8
2019-01-25T12:11:02.887Z,14.8
2019-01-25T12:12:03.740Z,11.2
2019-01-25T12:13:03.584Z,13.3
2019-01-25T12:14:04.513Z,9.7
2019-01-25T12:15:03.327Z,8.6
2019-01-25T12:16:03.227Z,8.6
2019-01-25T12:17:03.543Z,9.7
2019-01-25T12:18:03.053Z,9.7
2019-01-25T12:19:02.941Z,9.7
2019-01-25T12:20:03.833Z,9.7
2019-01-25T12:21:03.147Z,8.6
2019-01-25T12:22:03.073Z,8.6
2019-01-25T12:23:03.287Z,6.1
2019-01-25T12:24:03.789Z,6.1
2019-01-25T12:25:03.447Z,6.1
2019-01-25T12:26:02.947Z,8.6
2019-01-25T12:27:03.543Z,8.6
2019-01-25T12:28:05.873Z,8.6
2019-01-25T12:29:01.995Z,7.2
2019-01-25T12:30:02.045Z,8.6
2019-01-25T12:31:03.123Z,11.2
2019-01-25T12:32:03.469Z,8.6
2019-01-25T12:33:02.831Z,8.6
2019-01-25T12:34:04.013Z,7.2
2019-01-25T12:35:07.826Z,8.6
2019-01-25T12:36:03.152Z,7.2
2019-01-25T12:37:05.178Z,8.6
2019-01-25T12:38:03.144Z,8.6
2019-01-25T12:39:03.337Z,7.2
2019-01-25T12:40:03.498Z,8.6
2019-01-25T12:41:02.783Z,8.6
2019-01-25T12:42:03.036Z,7.2
2019-01-25T12:43:03.648Z,8.6
2019-01-25T12:44:03.734Z,8.6
2019-01-25T12:45:03.602Z,8.6
2019-01-25T12:46:03.403Z,9.7
2019-01-25T12:47:02.228Z,9.7
2019-01-25T12:48:03.234Z,9.7
2019-01-25T12:49:02.912Z,7.2
2019-01-25T12:50:03.290Z,8.6
2019-01-25T12:51:02.881Z,8.6
2019-01-25T12:52:08.845Z,8.6
2019-01-25T12:53:03.159Z,9.7
2019-01-25T12:54:03.595Z,13.3
2019-01-25T12:55:03.373Z,9.7
2019-01-25T12:56:03.259Z,9.7
2019-01-25T12:57:03.019Z,7.2
2019-01-25T12:58:03.059Z,8.6
2019-01-25T12:59:03.868Z,7.2
2019-01-25T13:00:02.848Z,8.6
2019-01-25T13:01:03.367Z,8.6
2019-01-25T13:02:03.238Z,8.6
2019-01-25T13:03:03.167Z,8.6
2019-01-25T13:04:03.647Z,8.6
2019-01-25T13:05:03.763Z,8.6
2019-01-25T13:06:03.344Z,8.6
2019-01-25T13:07:03.634Z,8.6
2019-01-25T13:08:03.262Z,8.6
2019-01-25T13:09:03.132Z,12.2
2019-01-25T13:10:03.619Z,8.6
2019-01-25T13:11:02.113Z,7.2
2019-01-25T13:12:02.078Z,8.6
2019-01-25T13:13:02.809Z,8.6
2019-01-25T13:14:03.124Z,7.2
2019-01-25T13:15:04.236Z,7.2
2019-01-25T13:16:03.546Z,9.7
2019-01-25T13:17:04.012Z,9.7
2019-01-25T13:18:03.953Z,9.7
2019-01-25T13:19:03.130Z,8.6
2019-01-25T13:20:03.644Z,7.2
2019-01-25T13:21:03.858Z,7.2
2019-01-25T13:22:03.020Z,7.2
2019-01-25T13:23:03.537Z,7.2
2019-01-25T13:24:03.196Z,7.2
2019-01-25T13:25:03.652Z,6.1
2019-01-25T13:26:03.218Z,6.1
2019-01-25T13:27:03.976Z,7.2
2019-01-25T13:28:02.797Z,6.1
2019-01-25T13:29:04.469Z,6.1
2019-01-25T13:30:04.634Z,9.7
2019-01-25T13:31:03.716Z,9.7
2019-01-25T13:32:03.447Z,7.2
2019-01-25T13:33:03.194Z,7.2
2019-01-25T13:34:03.780Z,9.7
2019-01-25T13:35:03.596Z,9.7
2019-01-25T13:36:02.924Z,9.7
2019-01-25T13:37:03.880Z,9.7
2019-01-25T13:38:03.514Z,11.2
2019-01-25T13:39:03.243Z,11.2
2019-01-25T13:40:03.079Z,11.2
2019-01-25T13:41:03.725Z,11.2
2019-01-25T13:42:02.150Z,9.7
2019-01-25T13:43:03.682Z,9.7
2019-01-25T13:44:02.871Z,11.2
2019-01-25T13:45:03.132Z,11.2
2019-01-25T13:46:03.806Z,11.2
2019-01-25T13:47:03.889Z,8.6
2019-01-25T13:48:03.316Z,8.6
2019-01-25T13:49:03.555Z,9.7
2019-01-25T13:50:03.317Z,13.3
2019-01-25T13:51:02.987Z,11.2
2019-01-25T13:52:03.068Z,9.7
2019-01-25T13:53:03.285Z,8.6
2019-01-25T13:54:02.683Z,11.2
2019-01-25T13:55:03.741Z,11.2
2019-01-25T13:56:03.486Z,11.2
2019-01-25T13:57:03.406Z,11.2
2019-01-25T13:58:03.273Z,7.2